Terminal Aerodrome Forecast
Issued by NWS Wakefield, VA

Home | Current Version | Previous Version | Text Only | Print | Product List | Glossary On
Versions: 1 2 3 4 5 6 7 8 9 10 11 12 13 14
630
FTUS41 KAKQ 221155 CCA
TAFECG
TAF COR
KECG 221155Z 2212/2312 12006KT P6SM SCT005 OVC060
      TEMPO 2212/2214 5SM -SHRA BR BKN005
     FM221400 31009KT P6SM BKN025
     FM221700 35012G18KT P6SM SCT050
     FM222300 35009KT P6SM SKC=

USA.gov is the U.S. government's official web portal to all federal, state and local government web resources and services.